Terminal Aerodrome Forecast
Issued by NWS

Current Version | Previous Version | Text Only | Print | Product List | Glossary On
Versions: 1 2 3 4 5 6 7 8 9 10 11 12 13
000
FTUS42 KGSP 221134 CCA
TAFGMU
TAF COR
KGMU 221134Z 2212/2312 03005KT P6SM FEW250
     FM221500 05006KT P6SM FEW035
     FM230000 08004KT P6SM FEW250=

USA.gov is the U.S. government's official web portal to all federal, state and local government web resources and services.